Time;durP1;ratioP1;P1;durP2;ratioP2;P2;SDS_P1;SDS_P2;PMS_P1;PMS_P2;Temp;Humidity;BMP_temperature;BMP_pressure;BME280_temperature;BME280_humidity;BME280_pressure;Samples;Min_cycle;Max_cycle;Signal;HPM_P1;HPM_P2
2021/07/23 00:00:15;;;;;;;28.88;5.47;;;;;;;;;;4989542;28;20486;-51
2021/07/23 00:02:42;;;;;;;31.30;5.60;;;;;;;;;;4984541;28;20038;-49
2021/07/23 00:05:10;;;;;;;30.42;5.00;;;;;;;;;;4988972;28;20037;-50
2021/07/23 00:07:37;;;;;;;32.47;5.70;;;;;;;;;;4986344;28;21342;-46
2021/07/23 00:10:04;;;;;;;31.45;6.35;;;;;;;;;;4987920;28;20042;-49
2021/07/23 00:12:31;;;;;;;37.42;5.85;;;;;;;;;;4984483;28;20010;-46
2021/07/23 00:14:58;;;;;;;28.23;5.88;;;;;;;;;;4987356;28;20092;-46
2021/07/23 00:17:25;;;;;;;36.60;5.88;;;;;;;;;;4985599;28;20493;-48
2021/07/23 00:19:52;;;;;;;40.03;6.53;;;;;;;;;;4986551;28;20022;-50
2021/07/23 00:22:19;;;;;;;39.88;6.30;;;;;;;;;;4985530;28;20030;-47
2021/07/23 00:24:46;;;;;;;43.35;5.70;;;;;;;;;;4988055;28;20083;-48
2021/07/23 00:27:13;;;;;;;45.13;6.32;;;;;;;;;;4986797;28;20026;-48
2021/07/23 00:29:40;;;;;;;44.35;7.43;;;;;;;;;;4988789;28;20026;-48
2021/07/23 00:32:07;;;;;;;33.70;5.70;;;;;;;;;;4983336;28;20153;-48
2021/07/23 00:34:34;;;;;;;32.15;5.65;;;;;;;;;;4988558;28;20030;-48
2021/07/23 00:37:01;;;;;;;31.35;6.03;;;;;;;;;;4988150;28;20072;-45
2021/07/23 00:39:28;;;;;;;39.78;5.75;;;;;;;;;;4988912;28;20022;-43
2021/07/23 00:41:55;;;;;;;37.65;5.85;;;;;;;;;;4985404;28;20026;-43
2021/07/23 00:44:22;;;;;;;32.17;5.85;;;;;;;;;;4987282;28;20045;-44
2021/07/23 00:46:49;;;;;;;30.45;5.95;;;;;;;;;;4989136;28;20061;-46
2021/07/23 00:49:16;;;;;;;33.78;6.00;;;;;;;;;;4987178;28;20089;-48
2021/07/23 00:51:44;;;;;;;32.35;6.72;;;;;;;;;;4988482;28;20026;-46
2021/07/23 00:54:12;;;;;;;39.35;6.95;;;;;;;;;;4984620;28;20030;-45
2021/07/23 00:56:39;;;;;;;40.35;6.95;;;;;;;;;;4986695;28;20528;-43
2021/07/23 00:59:06;;;;;;;44.50;9.30;;;;;;;;;;4990301;28;20041;-43
2021/07/23 01:01:34;;;;;;;44.65;11.35;;;;;;;;;;4989551;28;20034;-47
2021/07/23 01:04:02;;;;;;;49.85;13.27;;;;;;;;;;4986130;28;20045;-44
2021/07/23 01:06:29;;;;;;;54.45;17.02;;;;;;;;;;4989720;28;20035;-44
2021/07/23 01:08:56;;;;;;;46.03;16.27;;;;;;;;;;4990617;28;20035;-43
2021/07/23 01:11:24;;;;;;;56.83;18.30;;;;;;;;;;4989228;28;20109;-45
2021/07/23 01:13:51;;;;;;;54.42;16.73;;;;;;;;;;4985412;28;20029;-44
2021/07/23 01:16:21;;;;;;;47.33;16.77;;;;;;;;;;4991003;28;20133;-44
2021/07/23 01:18:48;;;;;;;54.03;16.73;;;;;;;;;;4989841;28;20097;-45
2021/07/23 01:21:16;;;;;;;52.10;16.80;;;;;;;;;;4990195;28;20053;-44
2021/07/23 01:23:43;;;;;;;46.17;16.38;;;;;;;;;;4984943;28;20485;-45
2021/07/23 01:26:10;;;;;;;47.50;15.45;;;;;;;;;;4990251;28;20098;-45
2021/07/23 01:28:38;;;;;;;57.83;16.60;;;;;;;;;;4988996;28;20022;-46
2021/07/23 01:31:05;;;;;;;54.60;15.05;;;;;;;;;;4989603;28;20022;-45
2021/07/23 01:33:32;;;;;;;50.40;16.27;;;;;;;;;;4985219;28;20109;-47
2021/07/23 01:36:00;;;;;;;45.55;14.98;;;;;;;;;;4988030;28;20113;-44
2021/07/23 01:38:30;;;;;;;47.55;15.43;;;;;;;;;;4987000;28;20024;-44
2021/07/23 01:40:57;;;;;;;49.50;14.65;;;;;;;;;;4986280;28;20022;-43
2021/07/23 01:43:25;;;;;;;66.15;15.45;;;;;;;;;;4986205;28;20030;-46
2021/07/23 01:45:57;;;;;;;54.60;14.27;;;;;;;;;;4983567;28;20038;-44
2021/07/23 01:48:24;;;;;;;;;;;;;;;;;;4988919;28;20110;-43
2021/07/23 01:50:51;;;;;;;54.20;13.38;;;;;;;;;;4986768;28;19910;-43
2021/07/23 01:53:18;;;;;;;42.25;14.57;;;;;;;;;;4987153;28;20029;-44
2021/07/23 01:55:45;;;;;;;42.83;13.50;;;;;;;;;;4984384;28;20022;-44
2021/07/23 01:58:12;;;;;;;48.97;14.15;;;;;;;;;;4986897;28;20038;-46
2021/07/23 02:00:39;;;;;;;53.28;13.50;;;;;;;;;;4988041;28;20027;-45
2021/07/23 02:03:06;;;;;;;47.25;13.70;;;;;;;;;;4987830;28;20110;-44
2021/07/23 02:05:33;;;;;;;46.88;13.10;;;;;;;;;;4990346;28;20033;-45
2021/07/23 02:08:01;;;;;;;43.67;13.43;;;;;;;;;;4971870;28;20029;-44
2021/07/23 02:10:28;;;;;;;41.53;13.20;;;;;;;;;;4986104;28;20121;-45
2021/07/23 02:12:56;;;;;;;45.95;13.35;;;;;;;;;;4988861;28;20034;-45
2021/07/23 02:15:23;;;;;;;40.63;12.77;;;;;;;;;;4986371;28;20034;-46
2021/07/23 02:17:50;;;;;;;41.67;12.48;;;;;;;;;;4988909;28;20044;-43
2021/07/23 02:20:17;;;;;;;49.22;14.25;;;;;;;;;;4988122;28;20142;-43
2021/07/23 02:22:44;;;;;;;38.33;13.27;;;;;;;;;;4989145;28;20049;-44
2021/07/23 02:25:12;;;;;;;44.08;12.20;;;;;;;;;;4992490;28;20082;-44
2021/07/23 02:27:39;;;;;;;41.88;12.55;;;;;;;;;;4993016;28;20021;-43
2021/07/23 02:30:06;;;;;;;41.80;11.57;;;;;;;;;;4993229;28;20034;-44
2021/07/23 02:32:33;;;;;;;44.30;12.68;;;;;;;;;;4992824;28;20018;-43
2021/07/23 02:35:00;;;;;;;34.13;12.50;;;;;;;;;;4992877;28;20030;-43
2021/07/23 02:37:27;;;;;;;40.85;12.32;;;;;;;;;;4992140;28;20413;-43
2021/07/23 02:39:54;;;;;;;44.88;12.10;;;;;;;;;;4993183;28;20714;-43
2021/07/23 02:42:21;;;;;;;47.05;12.68;;;;;;;;;;4994780;28;20014;-42
2021/07/23 02:44:48;;;;;;;41.35;11.68;;;;;;;;;;4994436;28;20081;-41
2021/07/23 02:47:15;;;;;;;35.38;11.95;;;;;;;;;;4994433;28;21447;-43
2021/07/23 02:49:42;;;;;;;34.10;10.93;;;;;;;;;;4994777;28;20026;-42
2021/07/23 02:52:09;;;;;;;37.75;11.05;;;;;;;;;;4994276;28;20145;-43
2021/07/23 02:54:36;;;;;;;34.22;10.85;;;;;;;;;;4994401;28;20026;-43
2021/07/23 02:57:03;;;;;;;37.88;10.98;;;;;;;;;;4993747;28;20033;-43
2021/07/23 02:59:30;;;;;;;38.40;11.25;;;;;;;;;;4987999;28;20027;-41
2021/07/23 03:01:57;;;;;;;42.70;10.77;;;;;;;;;;4981988;28;20018;-46
2021/07/23 03:04:24;;;;;;;35.90;10.25;;;;;;;;;;4981027;28;20034;-43
2021/07/23 03:06:53;;;;;;;40.92;11.57;;;;;;;;;;4985085;28;20037;-42
2021/07/23 03:09:20;;;;;;;44.92;12.40;;;;;;;;;;4984860;28;20391;-41
2021/07/23 03:11:47;;;;;;;44.47;10.40;;;;;;;;;;4981561;28;20054;-45
2021/07/23 03:14:14;;;;;;;35.20;11.45;;;;;;;;;;4985704;28;20034;-46
2021/07/23 03:16:41;;;;;;;30.33;9.48;;;;;;;;;;4993530;28;20085;-46
2021/07/23 03:19:08;;;;;;;37.15;10.30;;;;;;;;;;4994036;28;20504;-46
2021/07/23 03:21:35;;;;;;;33.40;10.15;;;;;;;;;;4994317;28;20386;-46
2021/07/23 03:24:02;;;;;;;40.00;10.30;;;;;;;;;;4990545;28;20132;-46
2021/07/23 03:26:29;;;;;;;24.98;9.95;;;;;;;;;;4992750;28;20023;-45
2021/07/23 03:28:56;;;;;;;32.95;9.27;;;;;;;;;;4994746;28;20391;-46
2021/07/23 03:31:23;;;;;;;31.40;9.55;;;;;;;;;;4994274;28;20026;-43
2021/07/23 03:33:51;;;;;;;29.83;8.43;;;;;;;;;;4993340;28;20073;-45
2021/07/23 03:36:18;;;;;;;27.20;9.32;;;;;;;;;;4990794;28;20026;-44
2021/07/23 03:38:45;;;;;;;27.95;9.02;;;;;;;;;;5009436;28;20364;-44
2021/07/23 03:41:12;;;;;;;32.55;9.15;;;;;;;;;;4994348;28;20022;-44
2021/07/23 03:43:39;;;;;;;26.58;8.45;;;;;;;;;;4994176;28;20030;-43
2021/07/23 03:46:06;;;;;;;26.48;8.20;;;;;;;;;;4989600;28;20026;-44
2021/07/23 03:48:33;;;;;;;30.08;9.05;;;;;;;;;;4994662;28;20041;-44
2021/07/23 03:51:00;;;;;;;25.42;8.85;;;;;;;;;;4994091;28;20034;-44
2021/07/23 03:53:27;;;;;;;29.02;9.40;;;;;;;;;;4994341;28;20054;-44
2021/07/23 03:55:54;;;;;;;25.65;8.48;;;;;;;;;;4989595;28;20360;-44
2021/07/23 03:58:23;;;;;;;24.25;8.50;;;;;;;;;;4994290;28;20866;-45
2021/07/23 04:00:50;;;;;;;25.55;8.45;;;;;;;;;;4994367;28;20054;-44
2021/07/23 04:03:17;;;;;;;28.02;8.98;;;;;;;;;;4993751;28;20372;-43
2021/07/23 04:05:45;;;;;;;23.50;7.20;;;;;;;;;;4989209;28;20027;-45
2021/07/23 04:08:12;;;;;;;24.30;8.07;;;;;;;;;;4994091;28;20355;-48
2021/07/23 04:10:39;;;;;;;31.30;8.05;;;;;;;;;;4994174;28;20030;-45
2021/07/23 04:13:06;;;;;;;23.63;8.52;;;;;;;;;;4993714;28;20018;-45
2021/07/23 04:15:33;;;;;;;21.95;7.35;;;;;;;;;;4988773;28;20030;-46
2021/07/23 04:18:00;;;;;;;21.95;7.60;;;;;;;;;;4994259;28;20026;-45
2021/07/23 04:20:27;;;;;;;26.95;8.10;;;;;;;;;;4993930;28;20029;-45
2021/07/23 04:22:54;;;;;;;22.60;7.13;;;;;;;;;;4993488;28;20026;-44
2021/07/23 04:25:21;;;;;;;23.10;7.30;;;;;;;;;;4990532;28;20049;-46
2021/07/23 04:27:48;;;;;;;19.77;7.28;;;;;;;;;;4992256;28;20026;-46
2021/07/23 04:30:16;;;;;;;24.60;7.60;;;;;;;;;;4993741;28;20026;-46
2021/07/23 04:32:44;;;;;;;20.88;7.88;;;;;;;;;;4993382;28;20018;-45
2021/07/23 04:35:11;;;;;;;26.80;7.82;;;;;;;;;;4993265;28;20022;-45
2021/07/23 04:37:38;;;;;;;24.67;7.25;;;;;;;;;;4989177;28;20026;-46
2021/07/23 04:40:08;;;;;;;21.35;7.70;;;;;;;;;;4993496;28;20593;-46
2021/07/23 04:42:35;;;;;;;20.13;6.93;;;;;;;;;;4993347;28;20072;-47
2021/07/23 04:45:05;;;;;;;18.75;6.68;;;;;;;;;;4992454;28;20066;-46
2021/07/23 04:47:36;;;;;;;17.38;6.65;;;;;;;;;;4988645;28;20117;-47
2021/07/23 04:50:03;;;;;;;16.02;6.95;;;;;;;;;;4993685;28;20073;-44
2021/07/23 04:52:30;;;;;;;19.35;6.57;;;;;;;;;;4993038;28;20029;-44
2021/07/23 04:54:59;;;;;;;18.65;6.45;;;;;;;;;;4993066;28;20022;-44
2021/07/23 04:57:28;;;;;;;23.95;6.95;;;;;;;;;;4988639;28;20103;-44
2021/07/23 04:59:55;;;;;;;19.48;6.63;;;;;;;;;;4993411;28;20080;-45
2021/07/23 05:02:23;;;;;;;18.38;6.57;;;;;;;;;;4992555;28;20050;-46
2021/07/23 05:04:51;;;;;;;17.40;6.10;;;;;;;;;;5007789;28;20042;-46
2021/07/23 05:07:18;;;;;;;13.65;5.10;;;;;;;;;;4988219;28;20055;-44
2021/07/23 05:09:45;;;;;;;19.02;6.18;;;;;;;;;;4993254;28;20022;-45
2021/07/23 05:12:12;;;;;;;15.13;6.35;;;;;;;;;;4993044;28;20414;-45
2021/07/23 05:14:39;;;;;;;14.65;6.40;;;;;;;;;;4992798;28;20022;-45
2021/07/23 05:17:07;;;;;;;17.67;5.65;;;;;;;;;;4987610;28;20413;-46
2021/07/23 05:19:35;;;;;;;15.75;6.15;;;;;;;;;;4992963;28;20573;-44
2021/07/23 05:22:02;;;;;;;19.15;6.00;;;;;;;;;;4992850;28;20064;-45
2021/07/23 05:24:30;;;;;;;15.40;6.00;;;;;;;;;;4992545;28;20053;-45
2021/07/23 05:26:59;;;;;;;17.77;6.25;;;;;;;;;;4988411;28;20041;-44
2021/07/23 05:29:26;;;;;;;14.27;5.88;;;;;;;;;;4992882;28;20470;-46
2021/07/23 05:31:53;;;;;;;14.52;5.32;;;;;;;;;;4992491;28;20019;-47
2021/07/23 05:34:21;;;;;;;12.82;5.65;;;;;;;;;;4991364;28;20382;-44
2021/07/23 05:36:51;;;;;;;14.60;5.75;;;;;;;;;;4990953;28;20040;-46
2021/07/23 05:39:18;;;;;;;20.58;5.60;;;;;;;;;;4983525;28;20022;-45
2021/07/23 05:41:45;;;;;;;18.75;6.30;;;;;;;;;;4990169;28;20023;-44
2021/07/23 05:44:12;;;;;;;15.18;5.75;;;;;;;;;;4992145;28;20510;-45
2021/07/23 05:46:39;;;;;;;12.43;5.43;;;;;;;;;;4992061;28;20022;-44
2021/07/23 05:49:06;;;;;;;13.65;5.15;;;;;;;;;;4987924;28;20974;-45
2021/07/23 05:51:34;;;;;;;14.57;5.05;;;;;;;;;;4992469;28;20022;-44
2021/07/23 05:54:00;;;;;;;14.55;5.55;;;;;;;;;;4992419;28;20069;-44
2021/07/23 05:56:27;;;;;;;13.77;5.65;;;;;;;;;;4993504;28;20028;-46
2021/07/23 05:58:54;;;;;;;14.18;5.30;;;;;;;;;;4991529;28;20478;-45
2021/07/23 06:01:22;;;;;;;15.20;5.43;;;;;;;;;;4996230;28;20027;-46
2021/07/23 06:03:49;;;;;;;15.93;5.25;;;;;;;;;;4996009;28;20048;-46
2021/07/23 06:06:16;;;;;;;10.32;4.70;;;;;;;;;;4996112;28;20014;-47
2021/07/23 06:08:43;;;;;;;10.52;5.57;;;;;;;;;;4991271;28;20478;-45
2021/07/23 06:11:10;;;;;;;10.43;5.30;;;;;;;;;;4996002;28;20433;-45
2021/07/23 06:13:37;;;;;;;10.32;5.15;;;;;;;;;;4996083;28;20037;-46
2021/07/23 06:16:09;;;;;;;10.90;5.03;;;;;;;;;;4995669;28;20046;-48
2021/07/23 06:18:36;;;;;;;12.38;4.32;;;;;;;;;;5005937;28;20454;-44
2021/07/23 06:21:03;;;;;;;12.93;5.07;;;;;;;;;;4996020;28;20030;-44
2021/07/23 06:23:30;;;;;;;11.48;4.45;;;;;;;;;;4996255;28;20102;-45
2021/07/23 06:25:57;;;;;;;10.10;4.38;;;;;;;;;;4995690;28;20051;-47
2021/07/23 06:28:24;;;;;;;8.88;4.72;;;;;;;;;;4991166;28;20034;-44
2021/07/23 06:30:51;;;;;;;16.65;4.68;;;;;;;;;;5010538;28;20037;-46
2021/07/23 06:33:18;;;;;;;13.05;4.72;;;;;;;;;;4995775;28;20076;-46
2021/07/23 06:35:45;;;;;;;15.82;5.00;;;;;;;;;;4995513;28;20026;-46
2021/07/23 06:38:12;;;;;;;11.40;4.28;;;;;;;;;;4994471;28;20486;-46
2021/07/23 06:40:39;;;;;;;14.05;5.05;;;;;;;;;;4991994;28;20038;-46
2021/07/23 06:43:06;;;;;;;11.77;4.38;;;;;;;;;;4995327;28;20026;-46
2021/07/23 06:45:33;;;;;;;13.35;4.70;;;;;;;;;;4995342;28;20076;-46
2021/07/23 06:48:01;;;;;;;9.15;4.13;;;;;;;;;;4995129;28;20030;-46
2021/07/23 06:50:31;;;;;;;10.18;4.28;;;;;;;;;;4990772;28;20478;-47
2021/07/23 06:52:58;;;;;;;13.98;5.07;;;;;;;;;;4995106;28;20030;-46
2021/07/23 06:55:25;;;;;;;11.40;4.35;;;;;;;;;;4995389;28;20022;-45
2021/07/23 06:57:52;;;;;;;11.98;4.43;;;;;;;;;;4994895;28;20535;-46
2021/07/23 07:00:20;;;;;;;12.00;4.70;;;;;;;;;;4990579;28;20145;-44
2021/07/23 07:02:47;;;;;;;13.70;4.82;;;;;;;;;;4995205;28;20057;-45
2021/07/23 07:05:14;;;;;;;12.90;4.25;;;;;;;;;;4995084;28;20541;-46
2021/07/23 07:07:41;;;;;;;8.55;4.00;;;;;;;;;;4993969;28;20026;-46
2021/07/23 07:10:08;;;;;;;9.13;3.90;;;;;;;;;;4990308;28;20022;-47
2021/07/23 07:12:35;;;;;;;8.80;4.40;;;;;;;;;;4994876;28;20025;-47
2021/07/23 07:15:02;;;;;;;11.75;4.38;;;;;;;;;;4994956;28;20034;-46
2021/07/23 07:17:30;;;;;;;9.80;3.92;;;;;;;;;;4994692;28;20382;-44
2021/07/23 07:20:00;;;;;;;7.80;3.35;;;;;;;;;;4989782;28;20030;-45
2021/07/23 07:22:28;;;;;;;8.57;3.92;;;;;;;;;;4994733;28;20453;-46
2021/07/23 07:24:55;;;;;;;9.73;4.05;;;;;;;;;;4994905;28;20045;-46
2021/07/23 07:27:22;;;;;;;7.50;3.65;;;;;;;;;;4994513;28;20022;-46
2021/07/23 07:29:49;;;;;;;12.07;4.90;;;;;;;;;;4990610;28;20041;-46
2021/07/23 07:32:16;;;;;;;10.20;4.13;;;;;;;;;;4993914;28;20026;-45
2021/07/23 07:34:43;;;;;;;10.40;3.80;;;;;;;;;;4994481;28;20022;-45
2021/07/23 07:37:10;;;;;;;8.05;4.00;;;;;;;;;;4994393;28;20031;-46
2021/07/23 07:39:37;;;;;;;8.00;4.00;;;;;;;;;;4993655;28;20475;-44
2021/07/23 07:42:04;;;;;;;8.63;3.90;;;;;;;;;;5005419;28;20026;-47
2021/07/23 07:44:31;;;;;;;9.27;4.38;;;;;;;;;;4994173;28;20034;-44
2021/07/23 07:46:58;;;;;;;8.90;3.72;;;;;;;;;;4994465;28;20026;-47
2021/07/23 07:49:25;;;;;;;8.68;3.85;;;;;;;;;;4993736;28;20015;-44
2021/07/23 07:51:52;;;;;;;7.97;3.60;;;;;;;;;;4989614;28;20267;-46
2021/07/23 07:54:19;;;;;;;7.68;3.70;;;;;;;;;;4994326;28;20044;-44
2021/07/23 07:56:46;;;;;;;8.23;4.22;;;;;;;;;;4992690;28;20093;-46
2021/07/23 07:59:13;;;;;;;9.32;3.80;;;;;;;;;;4992472;28;20034;-44
2021/07/23 08:01:43;;;;;;;5.95;3.40;;;;;;;;;;4988320;28;20015;-44
2021/07/23 08:04:12;;;;;;;9.50;3.63;;;;;;;;;;4993877;28;20034;-44
2021/07/23 08:06:41;;;;;;;9.65;3.60;;;;;;;;;;4993754;28;20018;-44
2021/07/23 08:09:13;;;;;;;10.88;4.07;;;;;;;;;;4993270;28;20038;-48
2021/07/23 08:11:40;;;;;;;6.38;3.63;;;;;;;;;;4989185;28;20030;-47
2021/07/23 08:14:07;;;;;;;10.82;4.18;;;;;;;;;;4993826;28;20037;-45
2021/07/23 08:16:35;;;;;;;6.40;3.72;;;;;;;;;;4993525;28;20046;-45
2021/07/23 08:19:05;;;;;;;6.90;3.83;;;;;;;;;;4993637;28;20030;-45
2021/07/23 08:21:33;;;;;;;10.45;3.38;;;;;;;;;;4988719;28;20042;-44
2021/07/23 08:24:03;;;;;;;8.77;3.50;;;;;;;;;;4993641;28;20545;-45
2021/07/23 08:26:30;;;;;;;12.13;4.47;;;;;;;;;;4993671;28;20022;-46
2021/07/23 08:28:57;;;;;;;7.47;3.40;;;;;;;;;;4993399;28;20586;-44
2021/07/23 08:31:27;;;;;;;7.47;3.42;;;;;;;;;;4988336;28;20038;-45
2021/07/23 08:33:54;;;;;;;7.80;3.78;;;;;;;;;;4993584;28;20073;-44
2021/07/23 08:36:21;;;;;;;9.30;3.83;;;;;;;;;;4993710;28;20029;-45
2021/07/23 08:38:48;;;;;;;10.77;4.35;;;;;;;;;;4993093;28;20030;-45
2021/07/23 08:41:15;;;;;;;7.18;3.45;;;;;;;;;;4990998;28;20034;-45
2021/07/23 08:43:46;;;;;;;5.97;3.22;;;;;;;;;;4990934;28;20414;-45
2021/07/23 08:46:15;;;;;;;5.70;3.53;;;;;;;;;;4993537;28;20023;-44
2021/07/23 08:48:42;;;;;;;10.05;3.92;;;;;;;;;;4992958;28;20057;-49
2021/07/23 08:51:10;;;;;;;9.13;3.55;;;;;;;;;;4992627;28;20196;-44
2021/07/23 08:53:37;;;;;;;7.90;3.67;;;;;;;;;;5003321;28;20470;-45
2021/07/23 08:56:04;;;;;;;8.93;4.50;;;;;;;;;;4993157;28;20105;-45
2021/07/23 08:58:32;;;;;;;7.03;3.75;;;;;;;;;;4992944;28;20018;-46
2021/07/23 09:00:59;;;;;;;6.30;3.60;;;;;;;;;;4992646;28;20482;-45
2021/07/23 09:03:29;;;;;;;8.00;3.97;;;;;;;;;;4988172;28;20026;-45
2021/07/23 09:05:57;;;;;;;7.25;3.53;;;;;;;;;;4992991;28;20026;-45
2021/07/23 09:08:24;;;;;;;8.50;3.80;;;;;;;;;;4992640;28;20026;-44
2021/07/23 09:11:05;;;;;;;7.20;3.38;;;;;;;;;;4992436;28;20022;-45
2021/07/23 09:13:32;;;;;;;7.47;3.80;;;;;;;;;;5003144;28;20018;-47
2021/07/23 09:15:59;;;;;;;9.68;3.90;;;;;;;;;;4992663;28;20057;-44
2021/07/23 09:18:35;;;;;;;11.02;3.95;;;;;;;;;;4992667;28;20033;-45
2021/07/23 09:21:02;;;;;;;10.05;3.70;;;;;;;;;;4991957;28;20034;-49
2021/07/23 09:23:31;;;;;;;10.07;4.30;;;;;;;;;;4987995;28;20026;-46
2021/07/23 09:26:02;;;;;;;9.68;3.45;;;;;;;;;;4993041;28;20030;-44
2021/07/23 09:28:30;;;;;;;8.23;3.60;;;;;;;;;;4992838;28;20026;-45
2021/07/23 09:30:59;;;;;;;7.03;3.70;;;;;;;;;;4991622;28;20434;-43
2021/07/23 09:33:30;;;;;;;7.32;3.72;;;;;;;;;;4987633;28;20033;-44
2021/07/23 09:36:05;;;;;;;10.93;3.80;;;;;;;;;;4992778;28;20050;-45
2021/07/23 09:38:39;;;;;;;8.15;4.10;;;;;;;;;;4992412;28;20480;-45
2021/07/23 09:41:10;;;;;;;8.18;4.03;;;;;;;;;;4991805;28;20030;-44
2021/07/23 09:43:38;;;;;;;6.78;3.25;;;;;;;;;;4987786;28;20142;-45
2021/07/23 09:46:18;;;;;;;11.43;3.92;;;;;;;;;;4992704;28;20109;-44
2021/07/23 09:48:45;;;;;;;6.95;3.60;;;;;;;;;;4992451;28;20023;-44
2021/07/23 09:51:13;;;;;;;7.40;3.47;;;;;;;;;;4991883;28;20109;-44
2021/07/23 09:53:40;;;;;;;7.22;3.72;;;;;;;;;;4987606;28;20557;-45
2021/07/23 09:56:10;;;;;;;13.93;3.50;;;;;;;;;;5007791;28;20359;-44
2021/07/23 09:58:38;;;;;;;8.38;3.83;;;;;;;;;;4992390;28;20026;-43
2021/07/23 10:01:08;;;;;;;9.93;3.97;;;;;;;;;;4991824;28;20030;-44
2021/07/23 10:03:40;;;;;;;7.97;3.70;;;;;;;;;;4987914;28;20034;-44
2021/07/23 10:06:07;;;;;;;;;;;;;;;;;;4973540;28;20031;-44
2021/07/23 10:08:36;;;;;;;9.45;3.72;;;;;;;;;;4972926;28;19910;-44
2021/07/23 10:11:04;;;;;;;8.52;3.53;;;;;;;;;;4972229;28;20061;-44
2021/07/23 10:13:31;;;;;;;9.93;3.60;;;;;;;;;;4972913;28;20435;-45
2021/07/23 10:15:59;;;;;;;11.15;3.72;;;;;;;;;;4989711;28;20042;-46
2021/07/23 10:18:27;;;;;;;9.93;3.90;;;;;;;;;;5007226;28;20027;-46
2021/07/23 10:20:54;;;;;;;9.02;3.88;;;;;;;;;;4992096;28;20165;-44
2021/07/23 10:23:23;;;;;;;8.00;3.10;;;;;;;;;;4991901;28;20029;-43
2021/07/23 10:25:51;;;;;;;8.32;4.15;;;;;;;;;;4987243;28;20057;-44
2021/07/23 10:28:36;;;;;;;10.07;3.40;;;;;;;;;;4992326;28;20046;-44
2021/07/23 10:31:27;;;;;;;7.72;3.55;;;;;;;;;;4992133;28;20394;-45
2021/07/23 10:33:57;;;;;;;6.50;3.50;;;;;;;;;;4990297;28;20497;-46
2021/07/23 10:36:27;;;;;;;6.72;3.63;;;;;;;;;;4989126;28;20026;-44
2021/07/23 10:39:06;;;;;;;8.15;3.63;;;;;;;;;;4992213;28;20482;-44
2021/07/23 10:41:37;;;;;;;7.60;3.50;;;;;;;;;;4991403;28;20053;-45
2021/07/23 10:44:06;;;;;;;9.25;3.78;;;;;;;;;;4992874;28;20046;-44
2021/07/23 10:46:56;;;;;;;6.10;3.65;;;;;;;;;;4990501;28;20026;-46
2021/07/23 10:49:33;;;;;;;6.35;3.30;;;;;;;;;;4988254;28;20043;-44
2021/07/23 10:52:00;;;;;;;6.13;3.40;;;;;;;;;;4995063;28;20034;-45
2021/07/23 10:54:29;;;;;;;6.90;3.53;;;;;;;;;;4993179;28;20533;-44
2021/07/23 10:57:01;;;;;;;7.25;3.65;;;;;;;;;;4992985;28;20019;-45
2021/07/23 10:59:40;;;;;;;9.00;3.70;;;;;;;;;;4995320;28;20049;-46
2021/07/23 11:02:09;;;;;;;7.40;3.35;;;;;;;;;;4994626;28;20033;-43
2021/07/23 11:04:36;;;;;;;9.57;3.50;;;;;;;;;;5008487;28;20038;-44
2021/07/23 11:07:03;;;;;;;7.60;3.55;;;;;;;;;;4991821;28;20482;-44
2021/07/23 11:09:37;;;;;;;7.15;3.63;;;;;;;;;;4995322;28;20097;-45
2021/07/23 11:12:16;;;;;;;9.80;3.63;;;;;;;;;;4994498;28;20015;-45
2021/07/23 11:14:43;;;;;;;7.57;3.63;;;;;;;;;;4994087;28;20022;-44
2021/07/23 11:17:11;;;;;;;11.05;3.72;;;;;;;;;;4990635;28;20104;-49
2021/07/23 11:19:38;;;;;;;7.38;3.72;;;;;;;;;;4991623;28;20161;-45
2021/07/23 11:22:05;;;;;;;6.20;3.92;;;;;;;;;;4994363;28;20022;-47
2021/07/23 11:24:36;;;;;;;9.07;3.60;;;;;;;;;;4977637;28;20510;-47
2021/07/23 11:27:03;;;;;;;8.98;3.70;;;;;;;;;;4976379;28;20041;-47
2021/07/23 11:29:38;;;;;;;8.00;4.10;;;;;;;;;;4975498;28;20026;-47
2021/07/23 11:32:09;;;;;;;9.70;3.65;;;;;;;;;;4974962;28;20026;-49
2021/07/23 11:34:41;;;;;;;7.43;3.50;;;;;;;;;;4974159;28;20117;-49
2021/07/23 11:37:26;;;;;;;11.68;4.18;;;;;;;;;;4986636;28;20015;-50
2021/07/23 11:39:57;;;;;;;12.43;4.63;;;;;;;;;;4994840;28;20101;-47
2021/07/23 11:42:25;;;;;;;12.45;4.28;;;;;;;;;;4994020;28;20018;-49
2021/07/23 11:44:53;;;;;;;9.45;4.32;;;;;;;;;;4994206;28;20038;-50
2021/07/23 11:47:27;;;;;;;12.25;4.57;;;;;;;;;;4989414;28;20023;-47
2021/07/23 11:49:58;;;;;;;7.97;4.38;;;;;;;;;;4994510;28;20517;-48
2021/07/23 11:52:25;;;;;;;11.13;4.55;;;;;;;;;;4993739;28;20433;-47
2021/07/23 11:54:59;;;;;;;11.13;3.90;;;;;;;;;;4993463;28;20494;-46
2021/07/23 11:57:26;;;;;;;10.70;4.63;;;;;;;;;;4989815;28;20046;-48
2021/07/23 11:59:53;;;;;;;14.30;4.43;;;;;;;;;;4994471;28;20029;-49
2021/07/23 12:02:24;;;;;;;10.30;4.00;;;;;;;;;;4993551;28;20026;-46
2021/07/23 12:05:08;;;;;;;7.57;3.95;;;;;;;;;;4993587;28;20035;-44
2021/07/23 12:07:36;;;;;;;11.98;3.88;;;;;;;;;;5004113;28;20121;-46
2021/07/23 12:10:04;;;;;;;14.18;4.45;;;;;;;;;;4994211;28;20377;-46
2021/07/23 12:12:32;;;;;;;14.07;4.57;;;;;;;;;;4993374;28;20114;-47
2021/07/23 12:15:06;;;;;;;12.82;5.22;;;;;;;;;;4992884;28;20022;-46
2021/07/23 12:17:34;;;;;;;13.88;4.53;;;;;;;;;;4988877;28;20104;-46
2021/07/23 12:20:02;;;;;;;13.07;4.47;;;;;;;;;;4993991;28;20088;-47
2021/07/23 12:22:29;;;;;;;15.30;4.25;;;;;;;;;;4993160;28;20112;-48
2021/07/23 12:24:56;;;;;;;12.57;4.47;;;;;;;;;;4992997;28;20027;-46
2021/07/23 12:27:23;;;;;;;21.85;4.80;;;;;;;;;;4988043;28;20026;-47
2021/07/23 12:29:54;;;;;;;13.27;5.40;;;;;;;;;;4979871;28;20121;-47
2021/07/23 12:32:26;;;;;;;10.07;5.50;;;;;;;;;;4993414;28;20018;-46
2021/07/23 12:34:57;;;;;;;15.38;6.43;;;;;;;;;;4993173;28;20363;-47
2021/07/23 12:37:24;;;;;;;17.02;7.20;;;;;;;;;;4987562;28;20603;-45
2021/07/23 12:39:52;;;;;;;17.20;8.98;;;;;;;;;;4993263;28;20106;-45
2021/07/23 12:42:23;;;;;;;23.15;10.30;;;;;;;;;;4993021;28;20023;-47
2021/07/23 12:44:50;;;;;;;24.58;12.55;;;;;;;;;;4992992;28;20088;-47
2021/07/23 12:47:21;;;;;;;21.25;12.00;;;;;;;;;;4989759;28;20030;-45
2021/07/23 12:49:49;;;;;;;17.85;10.85;;;;;;;;;;4989142;28;20099;-47
2021/07/23 12:52:17;;;;;;;23.35;11.45;;;;;;;;;;4991541;28;20422;-45
2021/07/23 12:54:51;;;;;;;25.92;12.88;;;;;;;;;;4992482;28;20031;-46
2021/07/23 12:57:24;;;;;;;21.83;10.75;;;;;;;;;;4991583;28;20024;-48
2021/07/23 12:59:52;;;;;;;22.33;12.75;;;;;;;;;;4991255;28;20570;-47
2021/07/23 13:02:20;;;;;;;23.35;13.00;;;;;;;;;;4992888;28;20023;-47
2021/07/23 13:04:49;;;;;;;25.15;12.35;;;;;;;;;;4992639;28;20479;-46
2021/07/23 13:07:16;;;;;;;24.40;12.20;;;;;;;;;;4992093;28;20034;-46
2021/07/23 13:09:47;;;;;;;21.33;11.82;;;;;;;;;;4988437;28;20382;-51
2021/07/23 13:12:18;;;;;;;21.27;11.10;;;;;;;;;;4992970;28;20027;-51
2021/07/23 13:14:45;;;;;;;29.98;12.75;;;;;;;;;;4992207;28;20072;-47
2021/07/23 13:17:12;;;;;;;22.10;12.45;;;;;;;;;;4992438;28;20060;-44
2021/07/23 13:19:39;;;;;;;26.80;11.35;;;;;;;;;;4988194;28;20030;-45
2021/07/23 13:22:07;;;;;;;20.95;12.10;;;;;;;;;;5001918;28;20028;-45
2021/07/23 13:24:34;;;;;;;26.05;11.32;;;;;;;;;;4991960;28;20091;-47
2021/07/23 13:27:01;;;;;;;23.42;10.13;;;;;;;;;;4992609;28;20030;-47
2021/07/23 13:29:28;;;;;;;23.15;10.68;;;;;;;;;;4987204;28;20034;-45
2021/07/23 13:31:55;;;;;;;20.90;10.60;;;;;;;;;;4991689;28;20030;-44
2021/07/23 13:34:24;;;;;;;21.45;9.73;;;;;;;;;;4992036;28;20029;-43
2021/07/23 13:37:00;;;;;;;21.15;9.95;;;;;;;;;;4990696;28;20153;-43
2021/07/23 13:39:33;;;;;;;20.63;10.02;;;;;;;;;;4986265;28;20034;-41
2021/07/23 13:42:01;;;;;;;21.48;10.02;;;;;;;;;;4991449;28;20030;-42
2021/07/23 13:44:29;;;;;;;22.33;10.27;;;;;;;;;;4991155;28;20394;-42
2021/07/23 13:46:59;;;;;;;25.95;10.27;;;;;;;;;;4989787;28;20394;-42
2021/07/23 13:49:26;;;;;;;19.15;8.88;;;;;;;;;;4985926;28;20042;-42
2021/07/23 13:51:55;;;;;;;25.00;10.23;;;;;;;;;;4991557;28;20031;-43
2021/07/23 13:54:22;;;;;;;19.00;8.98;;;;;;;;;;4991386;28;20433;-42
2021/07/23 13:56:49;;;;;;;22.80;9.45;;;;;;;;;;4986123;28;20478;-45
2021/07/23 13:59:17;;;;;;;20.08;9.43;;;;;;;;;;4987262;28;20062;-45
2021/07/23 14:01:44;;;;;;;18.13;8.25;;;;;;;;;;4989215;28;20073;-42
2021/07/23 14:04:11;;;;;;;20.45;8.48;;;;;;;;;;4988500;28;20108;-42
2021/07/23 14:06:38;;;;;;;16.33;7.70;;;;;;;;;;4989207;28;20534;-40
2021/07/23 14:09:05;;;;;;;17.67;8.40;;;;;;;;;;4982568;28;20481;-49
2021/07/23 14:11:32;;;;;;;24.95;9.07;;;;;;;;;;4979906;28;20045;-44
2021/07/23 14:13:59;;;;;;;17.30;7.95;;;;;;;;;;4985895;28;20033;-44
2021/07/23 14:16:26;;;;;;;15.73;7.50;;;;;;;;;;4986936;28;20122;-46
2021/07/23 14:18:53;;;;;;;18.88;7.53;;;;;;;;;;4988493;28;20390;-49
2021/07/23 14:21:20;;;;;;;18.92;8.63;;;;;;;;;;4987376;28;20513;-48
2021/07/23 14:23:48;;;;;;;17.30;7.72;;;;;;;;;;4990676;28;20482;-52
2021/07/23 14:26:15;;;;;;;16.10;6.53;;;;;;;;;;4990571;28;20505;-49
2021/07/23 14:28:42;;;;;;;18.77;6.93;;;;;;;;;;4993712;28;20469;-47
2021/07/23 14:31:14;;;;;;;14.15;6.63;;;;;;;;;;4989334;28;20046;-51
2021/07/23 14:33:44;;;;;;;22.27;6.68;;;;;;;;;;4992028;28;20396;-42
2021/07/23 14:36:12;;;;;;;17.08;6.95;;;;;;;;;;4989280;28;20114;-48